1°C Temp
-1°C Dewpoint
87% Humidity
Temperature
11 KM/H
7 MPH
6 KTS
200°
South South
West

Wind Speed
Clear
Conditions
Pressure 994.92 (hPa) - 29.38 (in)
Visibility 6.2 (mi) - 10.0 (km)

Current Conditions
EGAA
Location 70(mi)
Metar :EGAA 231620Z 20006KT CAVOK 01/M01 Q0995
Sat 23rd January 17:20 pm

Airport
  Metar Aviation API Data Provided by https://www.checkwx.com/ PHP scripts by weather34.com ©2021